sensor_id;sensor_type;location;lat;lon;timestamp;P1;durP1;ratioP1;P2;durP2;ratioP2
64037;SDS011;54641;50.168;8.492;2022-07-15T00:01:47;5.00;;;2.10;;
64037;SDS011;54641;50.168;8.492;2022-07-15T00:04:17;3.60;;;1.60;;
64037;SDS011;54641;50.168;8.492;2022-07-15T00:06:48;5.70;;;2.00;;
64037;SDS011;54641;50.168;8.492;2022-07-15T00:09:18;4.10;;;1.70;;
64037;SDS011;54641;50.168;8.492;2022-07-15T00:12:09;4.90;;;2.00;;
64037;SDS011;54641;50.168;8.492;2022-07-15T00:14:40;2.80;;;1.60;;
64037;SDS011;54641;50.168;8.492;2022-07-15T00:17:10;3.60;;;2.00;;
64037;SDS011;54641;50.168;8.492;2022-07-15T00:19:41;3.70;;;2.10;;
64037;SDS011;54641;50.168;8.492;2022-07-15T00:22:11;4.30;;;2.00;;
64037;SDS011;54641;50.168;8.492;2022-07-15T00:24:42;3.70;;;1.80;;
64037;SDS011;54641;50.168;8.492;2022-07-15T00:27:12;3.90;;;2.20;;
64037;SDS011;54641;50.168;8.492;2022-07-15T00:29:43;4.50;;;2.00;;
64037;SDS011;54641;50.168;8.492;2022-07-15T00:32:13;2.50;;;1.90;;
64037;SDS011;54641;50.168;8.492;2022-07-15T00:34:44;4.20;;;1.90;;
64037;SDS011;54641;50.168;8.492;2022-07-15T00:37:14;3.40;;;1.80;;
64037;SDS011;54641;50.168;8.492;2022-07-15T00:39:44;4.90;;;2.00;;
64037;SDS011;54641;50.168;8.492;2022-07-15T00:42:15;3.20;;;1.60;;
64037;SDS011;54641;50.168;8.492;2022-07-15T00:44:59;4.20;;;2.00;;
64037;SDS011;54641;50.168;8.492;2022-07-15T00:47:30;2.70;;;1.80;;
64037;SDS011;54641;50.168;8.492;2022-07-15T00:50:01;4.20;;;2.10;;
64037;SDS011;54641;50.168;8.492;2022-07-15T00:52:32;3.90;;;1.70;;
64037;SDS011;54641;50.168;8.492;2022-07-15T00:55:04;3.30;;;1.70;;
64037;SDS011;54641;50.168;8.492;2022-07-15T00:57:36;3.20;;;2.00;;
64037;SDS011;54641;50.168;8.492;2022-07-15T01:00:08;5.20;;;2.00;;
64037;SDS011;54641;50.168;8.492;2022-07-15T01:02:40;5.10;;;1.90;;
64037;SDS011;54641;50.168;8.492;2022-07-15T01:05:18;3.00;;;1.60;;
64037;SDS011;54641;50.168;8.492;2022-07-15T01:07:49;3.60;;;1.90;;
64037;SDS011;54641;50.168;8.492;2022-07-15T01:10:38;6.60;;;1.90;;
64037;SDS011;54641;50.168;8.492;2022-07-15T01:13:09;3.80;;;2.10;;
64037;SDS011;54641;50.168;8.492;2022-07-15T01:15:40;4.50;;;1.80;;
64037;SDS011;54641;50.168;8.492;2022-07-15T01:18:13;3.10;;;2.00;;
64037;SDS011;54641;50.168;8.492;2022-07-15T01:20:44;4.00;;;2.00;;
64037;SDS011;54641;50.168;8.492;2022-07-15T01:23:16;5.10;;;1.90;;
64037;SDS011;54641;50.168;8.492;2022-07-15T01:25:58;2.90;;;2.00;;
64037;SDS011;54641;50.168;8.492;2022-07-15T01:28:30;4.30;;;2.00;;
64037;SDS011;54641;50.168;8.492;2022-07-15T01:31:05;5.20;;;3.10;;
64037;SDS011;54641;50.168;8.492;2022-07-15T01:33:37;3.00;;;2.00;;
64037;SDS011;54641;50.168;8.492;2022-07-15T01:36:08;2.20;;;1.70;;
64037;SDS011;54641;50.168;8.492;2022-07-15T01:38:40;3.50;;;2.00;;
64037;SDS011;54641;50.168;8.492;2022-07-15T01:41:17;2.80;;;1.90;;
64037;SDS011;54641;50.168;8.492;2022-07-15T01:43:47;1.90;;;1.40;;
64037;SDS011;54641;50.168;8.492;2022-07-15T01:46:18;4.10;;;1.80;;
64037;SDS011;54641;50.168;8.492;2022-07-15T01:48:48;3.10;;;1.60;;
64037;SDS011;54641;50.168;8.492;2022-07-15T01:51:48;4.60;;;1.60;;
64037;SDS011;54641;50.168;8.492;2022-07-15T01:54:19;5.50;;;1.90;;
64037;SDS011;54641;50.168;8.492;2022-07-15T01:56:50;4.00;;;1.70;;
64037;SDS011;54641;50.168;8.492;2022-07-15T01:59:23;3.20;;;1.60;;
64037;SDS011;54641;50.168;8.492;2022-07-15T02:01:55;3.00;;;1.80;;
64037;SDS011;54641;50.168;8.492;2022-07-15T02:04:27;3.90;;;1.60;;
64037;SDS011;54641;50.168;8.492;2022-07-15T02:06:58;4.80;;;1.60;;
64037;SDS011;54641;50.168;8.492;2022-07-15T02:09:33;2.50;;;1.60;;
64037;SDS011;54641;50.168;8.492;2022-07-15T02:12:04;4.00;;;1.50;;
64037;SDS011;54641;50.168;8.492;2022-07-15T02:14:40;4.80;;;2.10;;
64037;SDS011;54641;50.168;8.492;2022-07-15T02:17:10;5.30;;;2.10;;
64037;SDS011;54641;50.168;8.492;2022-07-15T02:19:42;3.70;;;1.60;;
64037;SDS011;54641;50.168;8.492;2022-07-15T02:22:12;5.30;;;1.60;;
64037;SDS011;54641;50.168;8.492;2022-07-15T02:24:43;5.00;;;1.60;;
64037;SDS011;54641;50.168;8.492;2022-07-15T02:27:19;2.90;;;1.60;;
64037;SDS011;54641;50.168;8.492;2022-07-15T02:29:51;4.00;;;1.70;;
64037;SDS011;54641;50.168;8.492;2022-07-15T02:32:24;3.50;;;2.20;;
64037;SDS011;54641;50.168;8.492;2022-07-15T02:34:55;4.30;;;1.70;;
64037;SDS011;54641;50.168;8.492;2022-07-15T02:37:26;4.40;;;2.30;;
64037;SDS011;54641;50.168;8.492;2022-07-15T02:39:57;2.60;;;1.50;;
64037;SDS011;54641;50.168;8.492;2022-07-15T02:42:28;4.40;;;1.70;;
64037;SDS011;54641;50.168;8.492;2022-07-15T02:45:00;5.40;;;1.70;;
64037;SDS011;54641;50.168;8.492;2022-07-15T02:47:31;3.70;;;1.60;;
64037;SDS011;54641;50.168;8.492;2022-07-15T02:50:05;3.20;;;1.60;;
64037;SDS011;54641;50.168;8.492;2022-07-15T02:52:36;2.60;;;1.60;;
64037;SDS011;54641;50.168;8.492;2022-07-15T02:55:08;2.80;;;1.70;;
64037;SDS011;54641;50.168;8.492;2022-07-15T02:57:40;3.30;;;1.80;;
64037;SDS011;54641;50.168;8.492;2022-07-15T03:00:12;3.10;;;1.50;;
64037;SDS011;54641;50.168;8.492;2022-07-15T03:02:47;4.60;;;1.80;;
64037;SDS011;54641;50.168;8.492;2022-07-15T03:05:17;2.60;;;1.40;;
64037;SDS011;54641;50.168;8.492;2022-07-15T03:07:48;3.90;;;1.80;;
64037;SDS011;54641;50.168;8.492;2022-07-15T03:10:19;2.80;;;1.50;;
64037;SDS011;54641;50.168;8.492;2022-07-15T03:12:50;2.30;;;1.40;;
64037;SDS011;54641;50.168;8.492;2022-07-15T03:15:22;2.50;;;1.50;;
64037;SDS011;54641;50.168;8.492;2022-07-15T03:17:52;3.50;;;1.50;;
64037;SDS011;54641;50.168;8.492;2022-07-15T03:20:25;3.00;;;1.50;;
64037;SDS011;54641;50.168;8.492;2022-07-15T03:22:56;2.60;;;1.70;;
64037;SDS011;54641;50.168;8.492;2022-07-15T03:25:26;3.40;;;2.00;;
64037;SDS011;54641;50.168;8.492;2022-07-15T03:28:01;3.10;;;1.50;;
64037;SDS011;54641;50.168;8.492;2022-07-15T03:30:34;3.00;;;1.50;;
64037;SDS011;54641;50.168;8.492;2022-07-15T03:33:05;2.30;;;1.30;;
64037;SDS011;54641;50.168;8.492;2022-07-15T03:35:36;1.60;;;1.40;;
64037;SDS011;54641;50.168;8.492;2022-07-15T03:38:09;3.10;;;1.70;;
64037;SDS011;54641;50.168;8.492;2022-07-15T03:40:39;3.30;;;1.60;;
64037;SDS011;54641;50.168;8.492;2022-07-15T03:43:10;2.70;;;1.40;;
64037;SDS011;54641;50.168;8.492;2022-07-15T03:45:45;3.20;;;1.60;;
64037;SDS011;54641;50.168;8.492;2022-07-15T03:48:17;4.70;;;1.90;;
64037;SDS011;54641;50.168;8.492;2022-07-15T03:50:47;2.80;;;1.40;;
64037;SDS011;54641;50.168;8.492;2022-07-15T03:53:18;3.00;;;1.70;;
64037;SDS011;54641;50.168;8.492;2022-07-15T03:55:49;3.50;;;1.50;;
64037;SDS011;54641;50.168;8.492;2022-07-15T03:58:19;3.60;;;1.40;;
64037;SDS011;54641;50.168;8.492;2022-07-15T04:00:50;2.20;;;1.30;;
64037;SDS011;54641;50.168;8.492;2022-07-15T04:03:21;3.80;;;1.70;;
64037;SDS011;54641;50.168;8.492;2022-07-15T04:05:51;3.00;;;1.60;;
64037;SDS011;54641;50.168;8.492;2022-07-15T04:08:22;3.00;;;1.60;;
64037;SDS011;54641;50.168;8.492;2022-07-15T04:10:53;3.20;;;1.70;;
64037;SDS011;54641;50.168;8.492;2022-07-15T04:13:23;3.80;;;1.40;;
64037;SDS011;54641;50.168;8.492;2022-07-15T04:15:54;4.60;;;1.70;;
64037;SDS011;54641;50.168;8.492;2022-07-15T04:18:25;3.40;;;1.70;;
64037;SDS011;54641;50.168;8.492;2022-07-15T04:21:01;5.20;;;1.80;;
64037;SDS011;54641;50.168;8.492;2022-07-15T04:23:31;2.30;;;1.70;;
64037;SDS011;54641;50.168;8.492;2022-07-15T04:26:02;3.40;;;1.70;;
64037;SDS011;54641;50.168;8.492;2022-07-15T04:28:33;4.00;;;1.70;;
64037;SDS011;54641;50.168;8.492;2022-07-15T04:31:03;5.30;;;1.70;;
64037;SDS011;54641;50.168;8.492;2022-07-15T04:33:42;2.60;;;1.70;;
64037;SDS011;54641;50.168;8.492;2022-07-15T04:36:13;2.20;;;1.80;;
64037;SDS011;54641;50.168;8.492;2022-07-15T04:38:44;3.20;;;1.70;;
64037;SDS011;54641;50.168;8.492;2022-07-15T04:41:14;3.20;;;1.70;;
64037;SDS011;54641;50.168;8.492;2022-07-15T04:43:46;5.50;;;2.00;;
64037;SDS011;54641;50.168;8.492;2022-07-15T04:46:16;3.80;;;1.60;;
64037;SDS011;54641;50.168;8.492;2022-07-15T04:48:49;3.20;;;1.90;;
64037;SDS011;54641;50.168;8.492;2022-07-15T04:51:36;4.20;;;1.70;;
64037;SDS011;54641;50.168;8.492;2022-07-15T04:54:07;3.00;;;1.80;;
64037;SDS011;54641;50.168;8.492;2022-07-15T04:56:38;6.40;;;2.00;;
64037;SDS011;54641;50.168;8.492;2022-07-15T04:59:08;5.30;;;1.90;;
64037;SDS011;54641;50.168;8.492;2022-07-15T05:01:39;2.30;;;1.60;;
64037;SDS011;54641;50.168;8.492;2022-07-15T05:04:12;3.30;;;1.80;;
64037;SDS011;54641;50.168;8.492;2022-07-15T05:06:42;5.90;;;1.70;;
64037;SDS011;54641;50.168;8.492;2022-07-15T05:09:13;4.70;;;1.70;;
64037;SDS011;54641;50.168;8.492;2022-07-15T05:11:43;2.90;;;1.50;;
64037;SDS011;54641;50.168;8.492;2022-07-15T05:14:15;3.80;;;1.60;;
64037;SDS011;54641;50.168;8.492;2022-07-15T05:16:45;2.60;;;1.50;;
64037;SDS011;54641;50.168;8.492;2022-07-15T05:19:16;4.10;;;1.70;;
64037;SDS011;54641;50.168;8.492;2022-07-15T05:21:46;3.70;;;1.80;;
64037;SDS011;54641;50.168;8.492;2022-07-15T05:24:17;4.90;;;1.70;;
64037;SDS011;54641;50.168;8.492;2022-07-15T05:26:56;3.60;;;1.80;;
64037;SDS011;54641;50.168;8.492;2022-07-15T05:29:31;5.30;;;2.40;;
64037;SDS011;54641;50.168;8.492;2022-07-15T05:32:02;4.10;;;1.90;;
64037;SDS011;54641;50.168;8.492;2022-07-15T05:34:33;2.20;;;1.70;;
64037;SDS011;54641;50.168;8.492;2022-07-15T05:37:07;3.00;;;1.80;;
64037;SDS011;54641;50.168;8.492;2022-07-15T05:39:38;4.70;;;2.10;;
64037;SDS011;54641;50.168;8.492;2022-07-15T05:42:26;8.00;;;2.90;;
64037;SDS011;54641;50.168;8.492;2022-07-15T05:44:57;3.70;;;1.70;;
64037;SDS011;54641;50.168;8.492;2022-07-15T05:47:28;7.80;;;2.50;;
64037;SDS011;54641;50.168;8.492;2022-07-15T05:49:59;7.40;;;2.40;;
64037;SDS011;54641;50.168;8.492;2022-07-15T05:52:31;5.20;;;2.10;;
64037;SDS011;54641;50.168;8.492;2022-07-15T05:55:03;3.70;;;1.70;;
64037;SDS011;54641;50.168;8.492;2022-07-15T05:57:35;8.40;;;2.20;;
64037;SDS011;54641;50.168;8.492;2022-07-15T06:00:13;3.50;;;1.70;;
64037;SDS011;54641;50.168;8.492;2022-07-15T06:02:45;4.40;;;1.80;;
64037;SDS011;54641;50.168;8.492;2022-07-15T06:05:20;4.70;;;2.00;;
64037;SDS011;54641;50.168;8.492;2022-07-15T06:07:56;3.50;;;1.90;;
64037;SDS011;54641;50.168;8.492;2022-07-15T06:10:31;5.10;;;1.80;;
64037;SDS011;54641;50.168;8.492;2022-07-15T06:13:02;4.60;;;1.80;;
64037;SDS011;54641;50.168;8.492;2022-07-15T06:15:33;6.00;;;1.90;;
64037;SDS011;54641;50.168;8.492;2022-07-15T06:18:04;7.00;;;2.30;;
64037;SDS011;54641;50.168;8.492;2022-07-15T06:20:35;7.30;;;2.60;;
64037;SDS011;54641;50.168;8.492;2022-07-15T06:23:05;4.30;;;2.10;;
64037;SDS011;54641;50.168;8.492;2022-07-15T06:25:36;6.10;;;2.10;;
64037;SDS011;54641;50.168;8.492;2022-07-15T06:28:06;4.90;;;2.10;;
64037;SDS011;54641;50.168;8.492;2022-07-15T06:30:37;3.00;;;1.60;;
64037;SDS011;54641;50.168;8.492;2022-07-15T06:33:08;4.20;;;1.90;;
64037;SDS011;54641;50.168;8.492;2022-07-15T06:35:38;4.70;;;2.10;;
64037;SDS011;54641;50.168;8.492;2022-07-15T06:38:12;3.60;;;1.90;;
64037;SDS011;54641;50.168;8.492;2022-07-15T06:40:42;4.90;;;2.10;;
64037;SDS011;54641;50.168;8.492;2022-07-15T06:43:13;4.10;;;2.40;;
64037;SDS011;54641;50.168;8.492;2022-07-15T06:45:55;2.60;;;1.80;;
64037;SDS011;54641;50.168;8.492;2022-07-15T06:48:26;4.90;;;2.30;;
64037;SDS011;54641;50.168;8.492;2022-07-15T06:50:56;8.20;;;2.10;;
64037;SDS011;54641;50.168;8.492;2022-07-15T06:53:26;4.40;;;2.30;;
64037;SDS011;54641;50.168;8.492;2022-07-15T06:55:57;6.80;;;2.00;;
64037;SDS011;54641;50.168;8.492;2022-07-15T06:58:28;6.70;;;2.40;;
64037;SDS011;54641;50.168;8.492;2022-07-15T07:00:58;6.10;;;1.90;;
64037;SDS011;54641;50.168;8.492;2022-07-15T07:03:28;6.80;;;2.10;;
64037;SDS011;54641;50.168;8.492;2022-07-15T07:06:19;6.60;;;2.00;;
64037;SDS011;54641;50.168;8.492;2022-07-15T07:08:49;19.10;;;3.90;;
64037;SDS011;54641;50.168;8.492;2022-07-15T07:11:20;6.40;;;2.70;;
64037;SDS011;54641;50.168;8.492;2022-07-15T07:13:51;5.50;;;2.10;;
64037;SDS011;54641;50.168;8.492;2022-07-15T07:16:22;11.20;;;2.90;;
64037;SDS011;54641;50.168;8.492;2022-07-15T07:18:52;7.20;;;3.00;;
64037;SDS011;54641;50.168;8.492;2022-07-15T07:21:22;13.60;;;2.60;;
64037;SDS011;54641;50.168;8.492;2022-07-15T07:23:59;4.40;;;2.40;;
64037;SDS011;54641;50.168;8.492;2022-07-15T07:26:29;4.00;;;2.30;;
64037;SDS011;54641;50.168;8.492;2022-07-15T07:28:59;4.30;;;2.30;;
64037;SDS011;54641;50.168;8.492;2022-07-15T07:31:30;5.10;;;2.50;;
64037;SDS011;54641;50.168;8.492;2022-07-15T07:34:01;3.60;;;2.00;;
64037;SDS011;54641;50.168;8.492;2022-07-15T07:36:31;3.90;;;2.40;;
64037;SDS011;54641;50.168;8.492;2022-07-15T07:39:02;5.40;;;2.60;;
64037;SDS011;54641;50.168;8.492;2022-07-15T07:41:32;6.10;;;2.20;;
64037;SDS011;54641;50.168;8.492;2022-07-15T07:44:03;6.00;;;2.50;;
64037;SDS011;54641;50.168;8.492;2022-07-15T07:46:34;5.50;;;2.50;;
64037;SDS011;54641;50.168;8.492;2022-07-15T07:49:04;5.60;;;2.90;;
64037;SDS011;54641;50.168;8.492;2022-07-15T07:51:55;5.80;;;2.50;;
64037;SDS011;54641;50.168;8.492;2022-07-15T07:54:25;6.00;;;3.10;;
64037;SDS011;54641;50.168;8.492;2022-07-15T07:56:57;5.70;;;3.30;;
64037;SDS011;54641;50.168;8.492;2022-07-15T07:59:27;7.50;;;3.50;;
64037;SDS011;54641;50.168;8.492;2022-07-15T08:01:58;5.10;;;3.00;;
64037;SDS011;54641;50.168;8.492;2022-07-15T08:04:29;5.40;;;4.10;;
64037;SDS011;54641;50.168;8.492;2022-07-15T08:06:59;8.40;;;4.00;;
64037;SDS011;54641;50.168;8.492;2022-07-15T08:09:29;7.30;;;3.90;;
64037;SDS011;54641;50.168;8.492;2022-07-15T08:12:00;7.60;;;4.10;;
64037;SDS011;54641;50.168;8.492;2022-07-15T08:14:30;6.90;;;4.10;;
64037;SDS011;54641;50.168;8.492;2022-07-15T08:17:01;6.90;;;4.00;;
64037;SDS011;54641;50.168;8.492;2022-07-15T08:19:31;7.30;;;3.90;;
64037;SDS011;54641;50.168;8.492;2022-07-15T08:22:02;7.10;;;4.50;;
64037;SDS011;54641;50.168;8.492;2022-07-15T08:24:39;8.10;;;5.30;;
64037;SDS011;54641;50.168;8.492;2022-07-15T08:29:40;5.00;;;3.70;;
64037;SDS011;54641;50.168;8.492;2022-07-15T08:32:11;7.50;;;4.90;;
64037;SDS011;54641;50.168;8.492;2022-07-15T08:34:41;6.80;;;4.10;;
64037;SDS011;54641;50.168;8.492;2022-07-15T08:37:12;5.90;;;4.30;;
64037;SDS011;54641;50.168;8.492;2022-07-15T08:39:42;6.30;;;4.50;;
64037;SDS011;54641;50.168;8.492;2022-07-15T08:42:13;7.30;;;5.10;;
64037;SDS011;54641;50.168;8.492;2022-07-15T08:44:43;6.50;;;5.20;;
64037;SDS011;54641;50.168;8.492;2022-07-15T08:47:14;6.60;;;5.00;;
64037;SDS011;54641;50.168;8.492;2022-07-15T08:50:05;8.30;;;4.80;;
64037;SDS011;54641;50.168;8.492;2022-07-15T08:52:36;7.20;;;4.60;;
64037;SDS011;54641;50.168;8.492;2022-07-15T08:55:08;7.70;;;4.00;;
64037;SDS011;54641;50.168;8.492;2022-07-15T08:57:38;6.50;;;3.60;;
64037;SDS011;54641;50.168;8.492;2022-07-15T09:00:11;6.70;;;3.60;;
64037;SDS011;54641;50.168;8.492;2022-07-15T09:02:42;6.10;;;3.80;;
64037;SDS011;54641;50.168;8.492;2022-07-15T09:05:22;6.60;;;3.80;;
64037;SDS011;54641;50.168;8.492;2022-07-15T09:07:58;6.70;;;4.50;;
64037;SDS011;54641;50.168;8.492;2022-07-15T09:10:43;7.00;;;4.10;;
64037;SDS011;54641;50.168;8.492;2022-07-15T09:13:26;5.40;;;3.80;;
64037;SDS011;54641;50.168;8.492;2022-07-15T09:15:59;6.50;;;4.00;;
64037;SDS011;54641;50.168;8.492;2022-07-15T09:18:32;7.00;;;4.10;;
64037;SDS011;54641;50.168;8.492;2022-07-15T09:21:04;5.10;;;3.60;;
64037;SDS011;54641;50.168;8.492;2022-07-15T09:23:44;5.50;;;3.90;;
64037;SDS011;54641;50.168;8.492;2022-07-15T09:26:24;6.00;;;3.80;;
64037;SDS011;54641;50.168;8.492;2022-07-15T09:28:56;5.50;;;3.80;;
64037;SDS011;54641;50.168;8.492;2022-07-15T09:31:28;4.50;;;3.20;;
64037;SDS011;54641;50.168;8.492;2022-07-15T09:34:20;5.70;;;3.70;;
64037;SDS011;54641;50.168;8.492;2022-07-15T09:36:53;5.90;;;3.40;;
64037;SDS011;54641;50.168;8.492;2022-07-15T09:39:24;3.80;;;2.90;;
64037;SDS011;54641;50.168;8.492;2022-07-15T09:41:55;5.90;;;3.80;;
64037;SDS011;54641;50.168;8.492;2022-07-15T09:44:35;6.00;;;3.50;;
64037;SDS011;54641;50.168;8.492;2022-07-15T09:47:08;4.70;;;3.50;;
64037;SDS011;54641;50.168;8.492;2022-07-15T09:49:46;5.40;;;3.20;;
64037;SDS011;54641;50.168;8.492;2022-07-15T09:52:16;4.80;;;3.10;;
64037;SDS011;54641;50.168;8.492;2022-07-15T09:54:48;7.10;;;3.30;;
64037;SDS011;54641;50.168;8.492;2022-07-15T09:57:19;6.20;;;3.40;;
64037;SDS011;54641;50.168;8.492;2022-07-15T09:59:50;5.40;;;2.90;;
64037;SDS011;54641;50.168;8.492;2022-07-15T10:02:20;5.80;;;3.30;;
64037;SDS011;54641;50.168;8.492;2022-07-15T10:04:51;5.30;;;3.30;;
64037;SDS011;54641;50.168;8.492;2022-07-15T10:09:55;4.40;;;3.10;;
64037;SDS011;54641;50.168;8.492;2022-07-15T10:12:45;5.90;;;3.10;;
64037;SDS011;54641;50.168;8.492;2022-07-15T10:15:37;7.10;;;3.60;;
64037;SDS011;54641;50.168;8.492;2022-07-15T10:18:17;5.20;;;3.50;;
64037;SDS011;54641;50.168;8.492;2022-07-15T10:21:00;7.00;;;3.20;;
64037;SDS011;54641;50.168;8.492;2022-07-15T10:24:01;5.30;;;2.90;;
64037;SDS011;54641;50.168;8.492;2022-07-15T10:26:48;4.70;;;2.90;;
64037;SDS011;54641;50.168;8.492;2022-07-15T10:29:23;6.00;;;3.20;;
64037;SDS011;54641;50.168;8.492;2022-07-15T10:31:57;4.50;;;2.80;;
64037;SDS011;54641;50.168;8.492;2022-07-15T10:34:32;5.40;;;3.20;;
64037;SDS011;54641;50.168;8.492;2022-07-15T10:37:05;4.90;;;3.20;;
64037;SDS011;54641;50.168;8.492;2022-07-15T10:39:54;4.00;;;3.20;;
64037;SDS011;54641;50.168;8.492;2022-07-15T10:45:27;5.40;;;3.00;;
64037;SDS011;54641;50.168;8.492;2022-07-15T10:50:58;5.00;;;3.00;;
64037;SDS011;54641;50.168;8.492;2022-07-15T10:53:29;5.00;;;3.00;;
64037;SDS011;54641;50.168;8.492;2022-07-15T10:56:11;5.50;;;3.20;;
64037;SDS011;54641;50.168;8.492;2022-07-15T10:59:08;4.50;;;2.70;;
64037;SDS011;54641;50.168;8.492;2022-07-15T11:01:39;4.60;;;2.70;;
64037;SDS011;54641;50.168;8.492;2022-07-15T11:04:13;4.90;;;2.80;;
64037;SDS011;54641;50.168;8.492;2022-07-15T11:09:56;6.00;;;3.50;;
64037;SDS011;54641;50.168;8.492;2022-07-15T11:12:57;5.30;;;3.40;;
64037;SDS011;54641;50.168;8.492;2022-07-15T11:15:29;6.00;;;3.20;;
64037;SDS011;54641;50.168;8.492;2022-07-15T11:18:00;5.00;;;3.30;;
64037;SDS011;54641;50.168;8.492;2022-07-15T11:20:36;5.10;;;3.00;;
64037;SDS011;54641;50.168;8.492;2022-07-15T11:23:09;6.40;;;3.20;;
64037;SDS011;54641;50.168;8.492;2022-07-15T11:25:47;6.40;;;3.10;;
64037;SDS011;54641;50.168;8.492;2022-07-15T11:28:18;4.90;;;2.90;;
64037;SDS011;54641;50.168;8.492;2022-07-15T11:30:49;4.20;;;2.80;;
64037;SDS011;54641;50.168;8.492;2022-07-15T11:33:22;5.50;;;3.40;;
64037;SDS011;54641;50.168;8.492;2022-07-15T11:35:55;4.50;;;2.90;;
64037;SDS011;54641;50.168;8.492;2022-07-15T11:38:29;5.00;;;3.00;;
64037;SDS011;54641;50.168;8.492;2022-07-15T11:41:01;4.80;;;3.10;;
64037;SDS011;54641;50.168;8.492;2022-07-15T11:44:00;5.20;;;2.70;;
64037;SDS011;54641;50.168;8.492;2022-07-15T11:46:49;4.00;;;2.80;;
64037;SDS011;54641;50.168;8.492;2022-07-15T11:49:26;4.90;;;2.90;;
64037;SDS011;54641;50.168;8.492;2022-07-15T11:51:58;3.60;;;2.60;;
64037;SDS011;54641;50.168;8.492;2022-07-15T11:54:29;5.90;;;3.10;;
64037;SDS011;54641;50.168;8.492;2022-07-15T11:57:00;6.40;;;2.90;;
64037;SDS011;54641;50.168;8.492;2022-07-15T11:59:31;6.10;;;2.90;;
64037;SDS011;54641;50.168;8.492;2022-07-15T12:02:02;3.60;;;2.60;;
64037;SDS011;54641;50.168;8.492;2022-07-15T12:04:34;5.20;;;2.90;;
64037;SDS011;54641;50.168;8.492;2022-07-15T12:07:05;5.90;;;3.10;;
64037;SDS011;54641;50.168;8.492;2022-07-15T12:09:42;3.90;;;2.80;;
64037;SDS011;54641;50.168;8.492;2022-07-15T12:12:13;5.20;;;2.90;;
64037;SDS011;54641;50.168;8.492;2022-07-15T12:14:46;5.50;;;3.10;;
64037;SDS011;54641;50.168;8.492;2022-07-15T12:17:17;5.60;;;2.90;;
64037;SDS011;54641;50.168;8.492;2022-07-15T12:19:48;4.00;;;2.90;;
64037;SDS011;54641;50.168;8.492;2022-07-15T12:22:21;6.50;;;3.10;;
64037;SDS011;54641;50.168;8.492;2022-07-15T12:24:51;4.00;;;2.70;;
64037;SDS011;54641;50.168;8.492;2022-07-15T12:27:32;4.40;;;3.00;;
64037;SDS011;54641;50.168;8.492;2022-07-15T12:30:04;5.70;;;3.30;;
64037;SDS011;54641;50.168;8.492;2022-07-15T12:32:38;4.40;;;3.10;;
64037;SDS011;54641;50.168;8.492;2022-07-15T12:35:10;5.70;;;3.00;;
64037;SDS011;54641;50.168;8.492;2022-07-15T12:40:21;6.30;;;2.90;;
64037;SDS011;54641;50.168;8.492;2022-07-15T12:42:52;3.10;;;2.60;;
64037;SDS011;54641;50.168;8.492;2022-07-15T12:45:23;3.50;;;2.50;;
64037;SDS011;54641;50.168;8.492;2022-07-15T12:47:59;4.10;;;2.80;;
64037;SDS011;54641;50.168;8.492;2022-07-15T12:50:31;5.10;;;3.00;;
64037;SDS011;54641;50.168;8.492;2022-07-15T12:53:02;4.30;;;2.40;;
64037;SDS011;54641;50.168;8.492;2022-07-15T12:55:40;4.80;;;2.60;;
64037;SDS011;54641;50.168;8.492;2022-07-15T12:58:12;4.80;;;2.60;;
64037;SDS011;54641;50.168;8.492;2022-07-15T13:00:44;5.50;;;2.60;;
64037;SDS011;54641;50.168;8.492;2022-07-15T13:03:15;4.10;;;2.60;;
64037;SDS011;54641;50.168;8.492;2022-07-15T13:05:52;4.00;;;2.40;;
64037;SDS011;54641;50.168;8.492;2022-07-15T13:08:24;4.80;;;2.40;;
64037;SDS011;54641;50.168;8.492;2022-07-15T13:10:57;3.80;;;2.30;;
64037;SDS011;54641;50.168;8.492;2022-07-15T13:13:30;6.10;;;2.40;;
64037;SDS011;54641;50.168;8.492;2022-07-15T13:16:01;4.40;;;2.20;;
64037;SDS011;54641;50.168;8.492;2022-07-15T13:18:34;3.60;;;2.10;;
64037;SDS011;54641;50.168;8.492;2022-07-15T13:21:05;3.60;;;2.20;;
64037;SDS011;54641;50.168;8.492;2022-07-15T13:23:38;3.90;;;2.20;;
64037;SDS011;54641;50.168;8.492;2022-07-15T13:26:08;2.70;;;2.30;;
64037;SDS011;54641;50.168;8.492;2022-07-15T13:28:39;5.00;;;2.40;;
64037;SDS011;54641;50.168;8.492;2022-07-15T13:31:09;4.00;;;2.20;;
64037;SDS011;54641;50.168;8.492;2022-07-15T13:33:40;3.40;;;2.10;;
64037;SDS011;54641;50.168;8.492;2022-07-15T13:36:21;2.40;;;2.10;;
64037;SDS011;54641;50.168;8.492;2022-07-15T13:38:52;2.50;;;1.90;;
64037;SDS011;54641;50.168;8.492;2022-07-15T13:41:25;4.00;;;2.00;;
64037;SDS011;54641;50.168;8.492;2022-07-15T13:43:55;3.80;;;2.00;;
64037;SDS011;54641;50.168;8.492;2022-07-15T13:46:26;3.80;;;2.10;;
64037;SDS011;54641;50.168;8.492;2022-07-15T13:48:57;2.10;;;1.90;;
64037;SDS011;54641;50.168;8.492;2022-07-15T13:51:27;4.40;;;2.20;;
64037;SDS011;54641;50.168;8.492;2022-07-15T13:53:57;4.00;;;2.00;;
64037;SDS011;54641;50.168;8.492;2022-07-15T13:56:28;2.60;;;1.80;;
64037;SDS011;54641;50.168;8.492;2022-07-15T13:58:58;3.00;;;2.00;;
64037;SDS011;54641;50.168;8.492;2022-07-15T14:01:29;2.70;;;1.70;;
64037;SDS011;54641;50.168;8.492;2022-07-15T14:06:29;3.50;;;2.10;;
64037;SDS011;54641;50.168;8.492;2022-07-15T14:08:59;2.90;;;1.90;;
64037;SDS011;54641;50.168;8.492;2022-07-15T14:11:33;3.20;;;1.90;;
64037;SDS011;54641;50.168;8.492;2022-07-15T14:14:03;2.80;;;1.70;;
64037;SDS011;54641;50.168;8.492;2022-07-15T14:16:34;3.90;;;1.90;;
64037;SDS011;54641;50.168;8.492;2022-07-15T14:19:04;2.70;;;1.90;;
64037;SDS011;54641;50.168;8.492;2022-07-15T14:21:35;3.70;;;1.70;;
64037;SDS011;54641;50.168;8.492;2022-07-15T14:24:12;3.70;;;1.80;;
64037;SDS011;54641;50.168;8.492;2022-07-15T14:26:43;4.00;;;1.90;;
64037;SDS011;54641;50.168;8.492;2022-07-15T14:29:16;4.80;;;1.90;;
64037;SDS011;54641;50.168;8.492;2022-07-15T14:31:46;2.40;;;1.60;;
64037;SDS011;54641;50.168;8.492;2022-07-15T14:34:27;4.30;;;1.90;;
64037;SDS011;54641;50.168;8.492;2022-07-15T14:36:58;5.00;;;2.10;;
64037;SDS011;54641;50.168;8.492;2022-07-15T14:39:48;5.40;;;2.10;;
64037;SDS011;54641;50.168;8.492;2022-07-15T14:42:19;2.80;;;1.60;;
64037;SDS011;54641;50.168;8.492;2022-07-15T14:44:50;3.70;;;2.00;;
64037;SDS011;54641;50.168;8.492;2022-07-15T14:47:21;4.70;;;2.00;;
64037;SDS011;54641;50.168;8.492;2022-07-15T14:49:51;2.50;;;1.70;;
64037;SDS011;54641;50.168;8.492;2022-07-15T14:52:22;4.90;;;2.10;;
64037;SDS011;54641;50.168;8.492;2022-07-15T14:54:52;2.60;;;1.70;;
64037;SDS011;54641;50.168;8.492;2022-07-15T14:57:23;2.40;;;1.90;;
64037;SDS011;54641;50.168;8.492;2022-07-15T14:59:53;4.40;;;1.90;;
64037;SDS011;54641;50.168;8.492;2022-07-15T15:02:24;6.60;;;2.10;;
64037;SDS011;54641;50.168;8.492;2022-07-15T15:04:54;3.50;;;2.00;;
64037;SDS011;54641;50.168;8.492;2022-07-15T15:07:25;4.20;;;2.10;;
64037;SDS011;54641;50.168;8.492;2022-07-15T15:09:55;3.00;;;1.80;;
64037;SDS011;54641;50.168;8.492;2022-07-15T15:12:26;3.00;;;1.80;;
64037;SDS011;54641;50.168;8.492;2022-07-15T15:14:56;4.00;;;1.80;;
64037;SDS011;54641;50.168;8.492;2022-07-15T15:17:26;2.90;;;1.80;;
64037;SDS011;54641;50.168;8.492;2022-07-15T15:20:04;6.20;;;1.90;;
64037;SDS011;54641;50.168;8.492;2022-07-15T15:22:35;4.20;;;1.70;;
64037;SDS011;54641;50.168;8.492;2022-07-15T15:27:36;3.30;;;1.70;;
64037;SDS011;54641;50.168;8.492;2022-07-15T15:30:07;2.30;;;1.60;;
64037;SDS011;54641;50.168;8.492;2022-07-15T15:32:38;3.10;;;1.70;;
64037;SDS011;54641;50.168;8.492;2022-07-15T15:35:08;3.70;;;2.00;;
64037;SDS011;54641;50.168;8.492;2022-07-15T15:37:38;3.50;;;2.00;;
64037;SDS011;54641;50.168;8.492;2022-07-15T15:40:09;3.40;;;2.00;;
64037;SDS011;54641;50.168;8.492;2022-07-15T15:42:40;3.10;;;1.50;;
64037;SDS011;54641;50.168;8.492;2022-07-15T15:45:11;4.20;;;2.00;;